createdAt,value
2019-03-16T00:00:47.038Z,10.20
2019-03-16T00:03:16.275Z,10.20
2019-03-16T00:05:45.543Z,10.20
2019-03-16T00:08:15.049Z,10.20
2019-03-16T00:10:44.315Z,10.20
2019-03-16T00:13:16.129Z,10.10
2019-03-16T00:15:44.500Z,10.20
2019-03-16T00:18:13.741Z,10.20
2019-03-16T00:20:43.019Z,10.10
2019-03-16T00:23:12.251Z,10.20
2019-03-16T00:25:41.479Z,10.20
2019-03-16T00:28:10.709Z,10.20
2019-03-16T00:30:39.953Z,10.20
2019-03-16T00:33:09.186Z,10.20
2019-03-16T00:35:38.420Z,10.20
2019-03-16T00:38:07.684Z,10.20
2019-03-16T00:40:36.967Z,10.20
2019-03-16T00:43:06.305Z,10.20
2019-03-16T00:45:35.599Z,10.20
2019-03-16T00:48:05.129Z,10.20
2019-03-16T00:50:34.357Z,10.10
2019-03-16T00:53:03.606Z,10.10
2019-03-16T00:55:32.845Z,10.10
2019-03-16T00:58:03.496Z,10.00
2019-03-16T01:00:32.711Z,10.00
2019-03-16T01:03:01.965Z,10.00
2019-03-16T01:05:31.355Z,10.10
2019-03-16T01:08:08.958Z,10.10
2019-03-16T01:10:38.221Z,10.10
2019-03-16T01:13:07.434Z,10.10
2019-03-16T01:15:38.299Z,10.10
2019-03-16T01:18:10.778Z,10.10
2019-03-16T01:20:40.019Z,10.00
2019-03-16T01:23:09.245Z,10.00
2019-03-16T01:25:38.497Z,10.00
2019-03-16T01:28:08.828Z,10.10
2019-03-16T01:30:38.098Z,9.90
2019-03-16T01:33:07.323Z,10.00
2019-03-16T01:35:36.553Z,9.90
2019-03-16T01:38:25.195Z,9.90
2019-03-16T01:40:54.425Z,9.90
2019-03-16T01:43:23.675Z,9.90
2019-03-16T01:45:53.091Z,9.90
2019-03-16T01:48:22.312Z,9.80
2019-03-16T01:50:51.530Z,9.80
2019-03-16T01:53:20.764Z,9.80
2019-03-16T01:55:51.541Z,9.80
2019-03-16T01:58:20.848Z,9.80
2019-03-16T02:00:50.064Z,9.80
2019-03-16T02:03:19.305Z,9.80
2019-03-16T02:05:48.531Z,9.80
2019-03-16T02:08:19.464Z,9.80
2019-03-16T02:10:48.704Z,9.80
2019-03-16T02:13:17.935Z,9.80
2019-03-16T02:15:47.163Z,9.80
2019-03-16T02:18:17.080Z,9.80
2019-03-16T02:20:49.417Z,9.80
2019-03-16T02:23:18.709Z,9.80
2019-03-16T02:25:49.036Z,9.80
2019-03-16T02:28:18.354Z,9.80
2019-03-16T02:30:47.614Z,9.80
2019-03-16T02:33:16.849Z,9.80
2019-03-16T02:35:46.081Z,9.70
2019-03-16T02:38:15.433Z,9.70
2019-03-16T02:40:44.680Z,9.70
2019-03-16T02:43:13.908Z,9.70
2019-03-16T02:45:43.140Z,9.70
2019-03-16T02:48:12.704Z,9.70
2019-03-16T02:50:42.049Z,9.70
2019-03-16T02:53:11.308Z,9.80
2019-03-16T02:55:40.546Z,9.80
2019-03-16T02:58:09.764Z,9.80
2019-03-16T03:00:38.985Z,9.80
2019-03-16T03:03:08.218Z,9.80
2019-03-16T03:05:37.493Z,9.80
2019-03-16T03:08:07.826Z,9.80
2019-03-16T03:10:37.071Z,9.90
2019-03-16T03:13:06.295Z,9.80
2019-03-16T03:15:35.509Z,9.50
2019-03-16T03:18:05.105Z,9.10
2019-03-16T03:20:34.363Z,8.90
2019-03-16T03:23:03.658Z,8.60
2019-03-16T03:25:32.878Z,8.50
2019-03-16T03:28:02.121Z,8.30
2019-03-16T03:30:31.353Z,8.10
2019-03-16T03:33:00.574Z,8.00
2019-03-16T03:35:29.870Z,7.90
2019-03-16T03:37:59.209Z,7.80
2019-03-16T03:40:28.449Z,7.80
2019-03-16T03:42:57.695Z,7.80
2019-03-16T03:45:26.996Z,7.70
2019-03-16T03:47:56.241Z,7.70
2019-03-16T03:50:25.507Z,7.70
2019-03-16T03:52:54.736Z,7.70
2019-03-16T03:55:24.051Z,7.70
2019-03-16T03:57:53.286Z,7.70
2019-03-16T04:00:22.782Z,7.60
2019-03-16T04:02:52.067Z,7.40
2019-03-16T04:05:21.298Z,7.40
2019-03-16T04:07:50.548Z,7.30
2019-03-16T04:10:19.801Z,7.20
2019-03-16T04:12:49.031Z,7.10
2019-03-16T04:15:18.257Z,7.10
2019-03-16T04:17:47.541Z,7.10
2019-03-16T04:20:16.765Z,7.10
2019-03-16T04:22:46.200Z,7.10
2019-03-16T04:25:15.480Z,7.00
2019-03-16T04:27:44.784Z,7.00
2019-03-16T04:30:14.334Z,7.00
2019-03-16T04:32:43.583Z,6.90
2019-03-16T04:35:13.042Z,6.90
2019-03-16T04:37:42.457Z,6.90
2019-03-16T04:40:12.117Z,6.90
2019-03-16T04:42:41.355Z,6.90
2019-03-16T04:45:11.427Z,6.90
2019-03-16T04:47:40.757Z,6.80
2019-03-16T04:50:11.839Z,6.80
2019-03-16T04:52:41.095Z,6.80
2019-03-16T04:55:10.393Z,6.80
2019-03-16T04:57:39.627Z,6.80
2019-03-16T05:00:13.555Z,6.80
2019-03-16T05:02:42.788Z,6.80
2019-03-16T05:05:12.044Z,6.80
2019-03-16T05:07:41.294Z,6.80
2019-03-16T05:10:11.557Z,6.80
2019-03-16T05:12:40.754Z,6.80
2019-03-16T05:15:10.366Z,6.80
2019-03-16T05:17:39.585Z,6.90
2019-03-16T05:20:11.071Z,6.90
2019-03-16T05:22:40.441Z,6.90
2019-03-16T05:25:11.672Z,6.90
2019-03-16T05:27:40.919Z,6.90
2019-03-16T05:30:14.340Z,6.90
2019-03-16T05:32:43.563Z,6.90
2019-03-16T05:35:12.817Z,6.90
2019-03-16T05:37:42.071Z,6.90
2019-03-16T05:40:11.815Z,6.90
2019-03-16T05:42:41.066Z,6.90
2019-03-16T05:45:10.945Z,6.90
2019-03-16T05:47:40.202Z,6.90
2019-03-16T05:50:11.736Z,6.90
2019-03-16T05:52:41.248Z,6.90
2019-03-16T05:55:10.842Z,6.90
2019-03-16T05:57:40.116Z,7.00
2019-03-16T06:00:12.469Z,7.00
2019-03-16T06:02:41.787Z,7.00
2019-03-16T06:05:11.584Z,7.00
2019-03-16T06:07:40.916Z,7.00
2019-03-16T06:10:11.938Z,6.90
2019-03-16T06:12:41.172Z,6.90
2019-03-16T06:15:11.256Z,7.00
2019-03-16T06:17:40.492Z,6.90
2019-03-16T06:20:11.885Z,6.90
2019-03-16T06:22:41.134Z,6.90
2019-03-16T06:25:10.491Z,7.00
2019-03-16T06:27:39.725Z,6.90
2019-03-16T06:30:11.677Z,6.90
2019-03-16T06:32:40.900Z,7.00
2019-03-16T06:35:23.446Z,7.00
2019-03-16T06:37:41.156Z,7.00
2019-03-16T06:40:11.418Z,7.10
2019-03-16T06:42:40.652Z,7.10
2019-03-16T06:45:12.083Z,7.20
2019-03-16T06:47:41.304Z,7.20
2019-03-16T06:50:14.836Z,7.20
2019-03-16T06:52:44.085Z,7.30
2019-03-16T06:55:13.501Z,7.30
2019-03-16T06:57:42.776Z,7.30
2019-03-16T07:00:31.365Z,7.20
2019-03-16T07:03:00.612Z,7.20
2019-03-16T07:05:38.138Z,7.20
2019-03-16T07:08:01.156Z,7.20
2019-03-16T07:10:30.420Z,7.20
2019-03-16T07:12:59.767Z,7.30
2019-03-16T07:15:29.005Z,7.30
2019-03-16T07:17:58.224Z,7.30
2019-03-16T07:20:27.480Z,7.30
2019-03-16T07:22:56.707Z,7.30
2019-03-16T07:25:25.980Z,7.40
2019-03-16T07:27:55.747Z,7.40
2019-03-16T07:30:25.013Z,7.40
2019-03-16T07:32:54.271Z,7.40
2019-03-16T07:35:23.496Z,7.40
2019-03-16T07:37:52.790Z,7.40
2019-03-16T07:40:22.030Z,7.50
2019-03-16T07:42:51.258Z,7.60
2019-03-16T07:45:20.464Z,7.70
2019-03-16T07:47:49.709Z,7.90
2019-03-16T07:50:19.009Z,8.10
2019-03-16T07:52:48.264Z,8.30
2019-03-16T07:55:17.509Z,8.40
2019-03-16T07:57:46.754Z,8.50
2019-03-16T08:00:15.984Z,8.50
2019-03-16T08:02:45.243Z,8.60
2019-03-16T08:05:18.550Z,8.60
2019-03-16T08:07:45.609Z,8.60
2019-03-16T08:10:14.856Z,8.60
2019-03-16T08:12:44.094Z,8.70
2019-03-16T08:15:13.374Z,8.70
2019-03-16T08:17:42.592Z,8.70
2019-03-16T08:20:12.157Z,8.70
2019-03-16T08:22:41.392Z,8.70
2019-03-16T08:25:10.972Z,8.70
2019-03-16T08:27:52.957Z,8.70
2019-03-16T08:30:12.256Z,8.70
2019-03-16T08:32:41.490Z,8.70
2019-03-16T08:35:10.876Z,8.80
2019-03-16T08:37:40.119Z,8.80
2019-03-16T08:40:12.510Z,8.80
2019-03-16T08:42:41.816Z,8.80
2019-03-16T08:45:11.495Z,8.80
2019-03-16T08:47:40.711Z,8.80
2019-03-16T08:50:11.290Z,8.80
2019-03-16T08:52:40.500Z,8.80
2019-03-16T08:55:10.079Z,8.80
2019-03-16T08:57:39.307Z,8.80
2019-03-16T09:00:11.176Z,8.80
2019-03-16T09:02:40.493Z,8.90
2019-03-16T09:05:10.221Z,8.80
2019-03-16T09:07:39.467Z,8.80
2019-03-16T09:10:10.021Z,8.80
2019-03-16T09:12:39.383Z,8.90
2019-03-16T09:15:11.355Z,8.90
2019-03-16T09:17:40.689Z,8.90
2019-03-16T09:20:10.407Z,8.90
2019-03-16T09:22:39.657Z,8.90
2019-03-16T09:25:10.025Z,8.90
2019-03-16T09:27:39.293Z,8.90
2019-03-16T09:30:13.809Z,8.90
2019-03-16T09:32:43.145Z,8.90
2019-03-16T09:35:12.593Z,8.90
2019-03-16T09:37:41.828Z,8.90
2019-03-16T09:40:11.556Z,8.90
2019-03-16T09:42:40.781Z,8.90
2019-03-16T09:45:11.538Z,8.90
2019-03-16T09:47:40.758Z,8.90
2019-03-16T09:50:10.834Z,8.90
2019-03-16T09:52:40.152Z,8.90
2019-03-16T09:55:10.937Z,8.90
2019-03-16T09:57:40.191Z,8.90
2019-03-16T10:00:15.224Z,8.90
2019-03-16T10:02:44.565Z,8.90
2019-03-16T10:05:13.865Z,8.90
2019-03-16T10:07:43.126Z,8.90
2019-03-16T10:10:13.618Z,8.90
2019-03-16T10:12:42.952Z,9.00
2019-03-16T10:15:14.097Z,9.00
2019-03-16T10:17:43.324Z,9.00
2019-03-16T10:20:16.602Z,9.00
2019-03-16T10:22:45.839Z,9.00
2019-03-16T10:25:15.070Z,9.00
2019-03-16T10:27:44.316Z,9.00
2019-03-16T10:30:14.652Z,9.00
2019-03-16T10:32:43.896Z,9.00
2019-03-16T10:35:13.210Z,9.00
2019-03-16T10:37:42.473Z,9.00
2019-03-16T10:40:14.878Z,9.00
2019-03-16T10:42:44.107Z,8.90
2019-03-16T10:45:13.399Z,8.90
2019-03-16T10:47:42.637Z,8.90
2019-03-16T10:50:16.128Z,8.80
2019-03-16T10:52:45.361Z,8.80
2019-03-16T10:55:14.594Z,8.80
2019-03-16T10:57:43.826Z,8.80
2019-03-16T11:00:14.816Z,8.90
2019-03-16T11:02:44.048Z,8.90
2019-03-16T11:05:13.479Z,9.00
2019-03-16T11:07:42.763Z,9.00
2019-03-16T11:10:13.483Z,9.10
2019-03-16T11:12:42.783Z,9.10
2019-03-16T11:15:13.288Z,9.10
2019-03-16T11:17:42.515Z,9.10
2019-03-16T11:20:14.232Z,9.10
2019-03-16T11:22:43.476Z,9.10
2019-03-16T11:25:12.729Z,9.10
2019-03-16T11:27:41.968Z,9.00
2019-03-16T11:30:15.658Z,9.10
2019-03-16T11:32:44.889Z,9.10
2019-03-16T11:35:14.189Z,9.20
2019-03-16T11:37:43.432Z,9.20
2019-03-16T11:40:15.094Z,9.30
2019-03-16T11:42:44.330Z,9.40
2019-03-16T11:45:16.716Z,9.50
2019-03-16T11:47:44.548Z,9.50
2019-03-16T11:50:14.014Z,9.50
2019-03-16T11:52:43.273Z,9.50
2019-03-16T11:55:12.507Z,9.40
2019-03-16T11:57:41.753Z,9.40
2019-03-16T12:00:15.130Z,9.50
2019-03-16T12:02:44.387Z,9.50
2019-03-16T12:05:13.799Z,9.50
2019-03-16T12:07:43.032Z,9.50
2019-03-16T12:10:18.090Z,9.50
2019-03-16T12:12:47.330Z,9.50
2019-03-16T12:15:16.554Z,9.50
2019-03-16T12:17:45.789Z,9.60
2019-03-16T12:20:18.774Z,9.60
2019-03-16T12:22:48.213Z,9.50
2019-03-16T12:25:17.491Z,9.50
2019-03-16T12:27:46.718Z,9.50
2019-03-16T12:30:16.591Z,9.40
2019-03-16T12:32:45.830Z,9.50
2019-03-16T12:35:15.133Z,9.40
2019-03-16T12:37:44.383Z,9.40
2019-03-16T12:40:14.858Z,9.50
2019-03-16T12:42:44.101Z,9.50
2019-03-16T12:45:15.921Z,9.50
2019-03-16T12:47:45.188Z,9.50
2019-03-16T12:50:14.726Z,9.60
2019-03-16T12:52:44.018Z,9.60
2019-03-16T12:55:13.602Z,9.60
2019-03-16T12:57:42.929Z,9.70
2019-03-16T13:00:14.857Z,9.80
2019-03-16T13:02:44.135Z,10.00
2019-03-16T13:05:13.386Z,10.00
2019-03-16T13:07:42.701Z,10.00
2019-03-16T13:10:13.482Z,9.90
2019-03-16T13:12:42.778Z,9.90
2019-03-16T13:15:12.200Z,9.90
2019-03-16T13:17:41.502Z,10.00
2019-03-16T13:20:13.073Z,10.00
2019-03-16T13:22:42.302Z,10.20
2019-03-16T13:25:12.023Z,10.20
2019-03-16T13:27:41.358Z,10.30
2019-03-16T13:30:15.456Z,10.30
2019-03-16T13:32:44.702Z,10.40
2019-03-16T13:35:14.218Z,10.60
2019-03-16T13:37:43.534Z,10.60
2019-03-16T13:40:17.475Z,10.50
2019-03-16T13:42:46.860Z,10.40
2019-03-16T13:45:16.168Z,10.20
2019-03-16T13:47:45.440Z,10.10
2019-03-16T13:50:18.657Z,10.10
2019-03-16T13:52:48.165Z,10.10
2019-03-16T13:55:17.621Z,10.10
2019-03-16T13:57:46.931Z,10.10
2019-03-16T14:00:18.868Z,10.20
2019-03-16T14:02:48.143Z,10.30
2019-03-16T14:05:17.381Z,10.50
2019-03-16T14:07:46.969Z,10.70
2019-03-16T14:10:21.150Z,10.80
2019-03-16T14:12:50.373Z,10.80
2019-03-16T14:15:19.639Z,10.80
2019-03-16T14:17:48.879Z,10.80
2019-03-16T14:20:18.409Z,10.80
2019-03-16T14:22:47.807Z,10.70
2019-03-16T14:25:17.179Z,10.70
2019-03-16T14:27:46.403Z,10.60
2019-03-16T14:30:39.036Z,10.60
2019-03-16T14:32:50.814Z,10.50
2019-03-16T14:35:20.139Z,10.50
2019-03-16T14:37:49.479Z,10.40
2019-03-16T14:40:18.960Z,10.40
2019-03-16T14:42:48.289Z,10.30
2019-03-16T14:45:17.805Z,10.20
2019-03-16T14:47:47.377Z,10.10
2019-03-16T14:50:24.080Z,10.10
2019-03-16T14:52:53.388Z,10.10
2019-03-16T14:55:22.642Z,10.30
2019-03-16T14:57:51.945Z,10.40
2019-03-16T15:00:21.209Z,10.60
2019-03-16T15:02:50.457Z,10.80
2019-03-16T15:05:19.678Z,11.00
2019-03-16T15:07:50.557Z,11.10
2019-03-16T15:10:21.589Z,11.20
2019-03-16T15:12:50.841Z,11.30
2019-03-16T15:15:21.280Z,11.30
2019-03-16T15:17:50.539Z,11.30
2019-03-16T15:20:19.922Z,11.20
2019-03-16T15:22:49.173Z,11.10
2019-03-16T15:25:18.396Z,11.00
2019-03-16T15:27:48.600Z,10.90
2019-03-16T15:30:22.298Z,10.90
2019-03-16T15:32:51.592Z,10.80
2019-03-16T15:35:20.833Z,10.80
2019-03-16T15:37:50.107Z,10.70
2019-03-16T15:40:19.492Z,10.70
2019-03-16T15:42:48.721Z,10.60
2019-03-16T15:45:25.849Z,10.50
2019-03-16T15:47:55.179Z,10.50
2019-03-16T15:50:24.414Z,10.50
2019-03-16T15:52:53.756Z,10.50
2019-03-16T15:55:22.996Z,10.50
2019-03-16T15:57:52.287Z,10.50
2019-03-16T16:00:21.536Z,10.50
2019-03-16T16:02:50.770Z,10.50
2019-03-16T16:05:20.015Z,10.40
2019-03-16T16:07:49.232Z,10.40
2019-03-16T16:10:19.539Z,10.40
2019-03-16T16:12:48.789Z,10.30
2019-03-16T16:15:18.083Z,10.20
2019-03-16T16:17:47.336Z,10.10
2019-03-16T16:20:18.497Z,10.00
2019-03-16T16:22:47.916Z,10.00
2019-03-16T16:25:17.276Z,9.90
2019-03-16T16:27:46.531Z,10.00
2019-03-16T16:30:16.852Z,9.90
2019-03-16T16:32:46.073Z,9.90
2019-03-16T16:35:16.142Z,9.80
2019-03-16T16:37:45.391Z,9.80
2019-03-16T16:40:21.471Z,9.70
2019-03-16T16:42:50.716Z,9.70
2019-03-16T16:45:20.019Z,9.70
2019-03-16T16:47:49.262Z,9.70
2019-03-16T16:50:20.709Z,9.70
2019-03-16T16:52:50.006Z,9.60
2019-03-16T16:55:19.325Z,9.50
2019-03-16T16:57:48.570Z,9.50
2019-03-16T17:00:23.543Z,9.50
2019-03-16T17:02:52.772Z,9.40
2019-03-16T17:05:22.055Z,9.40
2019-03-16T17:07:51.299Z,9.50
2019-03-16T17:10:20.552Z,9.50
2019-03-16T17:12:49.947Z,9.40
2019-03-16T17:15:22.275Z,9.40
2019-03-16T17:17:51.685Z,9.40
2019-03-16T17:20:20.987Z,9.30
2019-03-16T17:22:50.244Z,9.30
2019-03-16T17:25:19.550Z,9.30
2019-03-16T17:27:48.851Z,9.20
2019-03-16T17:30:20.291Z,9.20
2019-03-16T17:32:49.548Z,9.10
2019-03-16T17:35:18.878Z,9.10
2019-03-16T17:37:48.129Z,9.20
2019-03-16T17:40:17.377Z,9.10
2019-03-16T17:42:46.653Z,9.10
2019-03-16T17:45:16.034Z,9.10
2019-03-16T17:47:45.402Z,9.00
2019-03-16T17:50:15.775Z,9.00
2019-03-16T17:52:45.185Z,8.90
2019-03-16T17:55:18.508Z,8.90
2019-03-16T17:57:48.537Z,8.80
2019-03-16T18:00:18.694Z,8.80
2019-03-16T18:02:51.929Z,8.80
2019-03-16T18:05:19.028Z,8.80
2019-03-16T18:07:48.375Z,8.70
2019-03-16T18:10:17.682Z,8.70
2019-03-16T18:12:46.915Z,8.70
2019-03-16T18:15:20.335Z,8.70
2019-03-16T18:17:49.637Z,8.60
2019-03-16T18:20:19.315Z,8.60
2019-03-16T18:22:48.735Z,8.50
2019-03-16T18:25:18.152Z,8.50
2019-03-16T18:27:47.449Z,8.50
2019-03-16T18:30:23.741Z,8.40
2019-03-16T18:32:53.224Z,8.40
2019-03-16T18:35:22.531Z,8.30
2019-03-16T18:37:52.525Z,8.30
2019-03-16T18:40:21.773Z,8.20
2019-03-16T18:42:51.029Z,8.20
2019-03-16T18:45:25.516Z,8.10
2019-03-16T18:47:54.775Z,8.10
2019-03-16T18:50:24.023Z,8.00
2019-03-16T18:52:53.337Z,8.00
2019-03-16T18:55:22.562Z,7.90
2019-03-16T18:57:52.386Z,7.90
2019-03-16T19:00:21.706Z,7.90
2019-03-16T19:02:51.008Z,7.80
2019-03-16T19:05:20.245Z,7.80
2019-03-16T19:07:49.737Z,7.70
2019-03-16T19:10:19.126Z,7.70
2019-03-16T19:12:48.379Z,7.70
2019-03-16T19:15:18.589Z,7.60
2019-03-16T19:17:58.494Z,7.60
2019-03-16T19:20:19.659Z,7.50
2019-03-16T19:22:49.057Z,7.50
2019-03-16T19:25:20.028Z,7.50
2019-03-16T19:27:49.320Z,7.40
2019-03-16T19:30:18.939Z,7.40
2019-03-16T19:32:48.250Z,7.40
2019-03-16T19:35:17.550Z,7.40
2019-03-16T19:37:46.826Z,7.40
2019-03-16T19:40:17.604Z,7.40
2019-03-16T19:42:47.353Z,7.30
2019-03-16T19:45:16.814Z,7.30
2019-03-16T19:47:46.057Z,7.30
2019-03-16T19:50:34.634Z,7.30
2019-03-16T19:53:03.926Z,7.30
2019-03-16T19:55:33.328Z,7.20
2019-03-16T19:58:02.806Z,7.20
2019-03-16T20:00:32.114Z,7.10
2019-03-16T20:03:01.428Z,7.10
2019-03-16T20:05:30.678Z,7.10
2019-03-16T20:08:00.199Z,7.10
2019-03-16T20:10:29.468Z,7.00
2019-03-16T20:12:58.748Z,7.00
2019-03-16T20:15:28.005Z,7.00
2019-03-16T20:17:57.234Z,7.00
2019-03-16T20:20:26.497Z,6.90
2019-03-16T20:22:55.817Z,6.90
2019-03-16T20:25:25.101Z,6.90
2019-03-16T20:27:56.048Z,6.90
2019-03-16T20:30:26.771Z,6.80
2019-03-16T20:33:03.742Z,6.80
2019-03-16T20:35:27.160Z,6.80
2019-03-16T20:37:56.856Z,6.80
2019-03-16T20:40:26.076Z,6.80
2019-03-16T20:42:55.330Z,6.70
2019-03-16T20:45:24.670Z,6.70
2019-03-16T20:47:54.183Z,6.60
2019-03-16T20:50:26.118Z,6.60
2019-03-16T20:52:55.386Z,6.60
2019-03-16T20:55:24.620Z,6.50
2019-03-16T20:57:54.444Z,6.50
2019-03-16T21:00:23.741Z,6.50
2019-03-16T21:02:52.999Z,6.40
2019-03-16T21:05:22.314Z,6.40
2019-03-16T21:07:53.374Z,6.30
2019-03-16T21:10:22.614Z,6.30
2019-03-16T21:12:51.871Z,6.30
2019-03-16T21:15:21.098Z,6.20
2019-03-16T21:17:51.959Z,6.20
2019-03-16T21:20:21.225Z,6.10
2019-03-16T21:22:50.461Z,6.10
2019-03-16T21:25:19.717Z,6.10
2019-03-16T21:27:49.272Z,6.10
2019-03-16T21:30:20.167Z,6.00
2019-03-16T21:32:49.623Z,6.00
2019-03-16T21:35:18.878Z,6.00
2019-03-16T21:37:48.173Z,5.90
2019-03-16T21:40:17.491Z,5.90
2019-03-16T21:42:46.770Z,5.90
2019-03-16T21:45:16.098Z,5.90
2019-03-16T21:47:45.425Z,5.80
2019-03-16T21:50:16.774Z,5.80
2019-03-16T21:52:48.490Z,5.80
2019-03-16T21:55:22.580Z,5.80
2019-03-16T21:57:53.648Z,5.70
2019-03-16T22:00:23.185Z,5.70
2019-03-16T22:02:54.121Z,5.70
2019-03-16T22:05:23.380Z,5.60
2019-03-16T22:07:52.676Z,5.60
2019-03-16T22:10:21.997Z,5.60
2019-03-16T22:12:51.385Z,5.50
2019-03-16T22:15:20.636Z,5.40
2019-03-16T22:17:50.601Z,5.40
2019-03-16T22:20:20.968Z,5.40
2019-03-16T22:22:50.185Z,5.40
2019-03-16T22:25:19.430Z,5.30
2019-03-16T22:27:51.711Z,5.30
2019-03-16T22:30:20.591Z,5.30
2019-03-16T22:32:49.827Z,5.20
2019-03-16T22:35:19.065Z,5.20
2019-03-16T22:37:48.297Z,5.20
2019-03-16T22:40:17.526Z,5.10
2019-03-16T22:42:46.787Z,5.10
2019-03-16T22:45:16.203Z,5.10
2019-03-16T22:47:45.539Z,5.00
2019-03-16T22:50:22.193Z,5.10
2019-03-16T22:52:51.433Z,5.00
2019-03-16T22:55:20.660Z,5.00
2019-03-16T22:57:49.945Z,5.00
2019-03-16T23:00:39.917Z,5.00
2019-03-16T23:03:09.164Z,5.00
2019-03-16T23:05:38.382Z,5.00
2019-03-16T23:08:14.878Z,5.00
2019-03-16T23:10:44.121Z,5.00
2019-03-16T23:13:13.361Z,4.90
2019-03-16T23:15:42.590Z,4.90
2019-03-16T23:18:11.834Z,4.90
2019-03-16T23:20:41.108Z,4.90
2019-03-16T23:23:10.343Z,4.90
2019-03-16T23:25:39.590Z,4.80
2019-03-16T23:28:09.192Z,4.80
2019-03-16T23:30:38.429Z,4.80
2019-03-16T23:33:07.743Z,4.80
2019-03-16T23:35:37.119Z,4.80
2019-03-16T23:38:21.217Z,4.80
2019-03-16T23:40:50.458Z,4.80
2019-03-16T23:43:19.784Z,4.80
2019-03-16T23:45:49.014Z,4.70
2019-03-16T23:48:18.273Z,4.70
2019-03-16T23:50:47.496Z,4.70
2019-03-16T23:53:16.750Z,4.70
2019-03-16T23:55:45.994Z,4.70
2019-03-16T23:58:20.870Z,4.70
